CYED/YED METAR and TAF weather

Enter ICAO airport designator
Station Type Date Time Source
CYED METAR 2020/12/01 21:00 UTC NOAA

CYED 012100Z AUTO 24007KT 9SM CLR 01/M09 A3025 RMK SLP276


Station Type Date Time Source
CYED Decoded METAR 2020/12/01 21:00 UTC NOAA

Edmonton Namao Alta., Canada (CYED) 53-40N 113-28W 688M
Dec 01, 2020 - 04:00 PM EST / 2020.12.01 2100 UTC
Wind: from the WSW (240 degrees) at 8 MPH (7 KT):0
Visibility: 9 mile(s):0
Sky conditions: clear
Temperature: 33 F (1 C)
Windchill: 26 F (-3 C):1
Dew Point: 15 F (-9 C)
Relative Humidity: 47%
Pressure (altimeter): 30.25 in. Hg (1024 hPa)
ob: CYED 012100Z AUTO 24007KT 9SM CLR 01/M09 A3025 RMK SLP276
cycle: 21

Station Type Date Time Source
CYED TAF 2020/12/01 18:54 UTC NOAA

TAF CYED 011730Z 0118/0206 28012KT P6SM FEW250
BECMG 0120/0122 22008KT
FM020000 22008KT P6SM FEW080
RMK FCST BASED ON AUTO OBS. NXT FCST BY 020000Z

Example: see airport list